Time;durP1;ratioP1;P1;durP2;ratioP2;P2;SDS_P1;SDS_P2;PMS_P1;PMS_P2;Temp;Humidity;BMP_temperature;BMP_pressure;BME280_temperature;BME280_humidity;BME280_pressure;Samples;Min_cycle;Max_cycle;Signal;HPM_P1;HPM_P2
2023/03/25 00:00:56;;;;;;;5.80;1.70;;;7.10;99.90;;;;;;5025506;28;20436;-57
2023/03/25 00:03:25;;;;;;;3.10;1.40;;;7.20;99.90;;;;;;5020605;28;20469;-60
2023/03/25 00:05:51;;;;;;;8.87;1.43;;;7.20;99.90;;;;;;5023534;28;20458;-59
2023/03/25 00:08:17;;;;;;;2.87;1.57;;;7.20;99.90;;;;;;5026312;28;20439;-59
2023/03/25 00:10:42;;;;;;;2.47;1.40;;;7.20;99.90;;;;;;5020448;28;20442;-59
2023/03/25 00:13:12;;;;;;;3.00;1.57;;;7.20;99.90;;;;;;5024882;28;20179;-60
2023/03/25 00:15:44;;;;;;;5.03;1.60;;;7.20;99.90;;;;;;5020926;28;20204;-59
2023/03/25 00:18:10;;;;;;;3.53;1.47;;;7.20;99.90;;;;;;5016896;28;20431;-58
2023/03/25 00:20:36;;;;;;;4.07;1.37;;;7.20;99.90;;;;;;5022192;28;20434;-57
2023/03/25 00:23:01;;;;;;;2.60;1.83;;;7.20;99.90;;;;;;5023317;28;20473;-56
2023/03/25 00:25:27;;;;;;;3.23;1.50;;;7.20;99.90;;;;;;5022284;28;20196;-60
2023/03/25 00:27:52;;;;;;;3.57;1.40;;;7.10;99.90;;;;;;5026180;28;20207;-57
2023/03/25 00:30:18;;;;;;;6.30;1.70;;;7.10;99.90;;;;;;5023306;28;20231;-58
2023/03/25 00:32:48;;;;;;;4.80;2.00;;;7.10;99.90;;;;;;5027423;28;20559;-58
2023/03/25 00:35:16;;;;;;;6.70;2.07;;;7.10;99.90;;;;;;5018586;28;20286;-59
2023/03/25 00:37:42;;;;;;;3.97;1.60;;;7.10;99.90;;;;;;5025177;28;20871;-57
2023/03/25 00:40:10;;;;;;;4.30;1.90;;;7.10;99.90;;;;;;5028887;28;20809;-59
2023/03/25 00:42:36;;;;;;;3.70;1.57;;;7.00;99.90;;;;;;5024837;28;20426;-59
2023/03/25 00:45:02;;;;;;;2.30;1.80;;;7.00;99.90;;;;;;5021176;28;20462;-57
2023/03/25 00:47:28;;;;;;;4.40;1.80;;;7.00;99.90;;;;;;5027194;28;20261;-59
2023/03/25 00:49:53;;;;;;;4.30;1.50;;;7.00;99.90;;;;;;5025294;28;20494;-57
2023/03/25 00:52:21;;;;;;;2.60;1.57;;;7.10;99.90;;;;;;5021609;28;20179;-60
2023/03/25 00:54:47;;;;;;;2.50;1.57;;;7.10;99.90;;;;;;5018610;28;20192;-58
2023/03/25 00:57:13;;;;;;;7.17;1.73;;;7.10;99.90;;;;;;5024524;28;20838;-59
2023/03/25 00:59:38;;;;;;;7.40;1.90;;;7.10;99.90;;;;;;5023232;28;20187;-57
2023/03/25 01:02:05;;;;;;;5.10;1.90;;;7.10;99.90;;;;;;5024138;28;20262;-57
2023/03/25 01:04:32;;;;;;;3.20;1.90;;;7.00;99.90;;;;;;5023542;28;20744;-57
2023/03/25 01:06:57;;;;;;;5.93;1.73;;;7.00;99.90;;;;;;5027195;28;20947;-57
2023/03/25 01:09:23;;;;;;;2.17;1.97;;;7.00;99.90;;;;;;5024566;28;20477;-57
2023/03/25 01:11:49;;;;;;;8.80;2.10;;;7.00;99.90;;;;;;5024063;28;20748;-58
2023/03/25 01:14:20;;;;;;;3.70;2.00;;;6.90;99.90;;;;;;5024407;28;20195;-58
2023/03/25 01:16:46;;;;;;;4.40;1.93;;;7.00;99.90;;;;;;5021164;28;20190;-58
2023/03/25 01:19:14;;;;;;;3.27;1.67;;;6.90;99.90;;;;;;5026862;28;20855;-57
2023/03/25 01:21:40;;;;;;;6.70;2.30;;;6.90;99.90;;;;;;5024289;28;20636;-58
2023/03/25 01:24:07;;;;;;;5.70;2.30;;;6.90;99.90;;;;;;5023031;28;20975;-58
2023/03/25 01:26:32;;;;;;;3.37;1.83;;;6.90;99.90;;;;;;5025821;28;20806;-61
2023/03/25 01:28:58;;;;;;;4.80;1.60;;;6.90;99.90;;;;;;5025083;28;20456;-57
2023/03/25 01:31:28;;;;;;;3.43;1.60;;;6.90;99.90;;;;;;5021318;28;20195;-58
2023/03/25 01:33:56;;;;;;;4.17;1.47;;;6.90;99.90;;;;;;5024953;28;20641;-55
2023/03/25 01:36:23;;;;;;;3.10;1.63;;;6.80;99.90;;;;;;5024853;28;20454;-57
2023/03/25 01:38:49;;;;;;;4.93;1.70;;;6.80;99.90;;;;;;5020781;28;21041;-57
2023/03/25 01:41:15;;;;;;;2.80;1.60;;;6.80;99.90;;;;;;5024723;28;20790;-58
2023/03/25 01:43:41;;;;;;;4.13;1.30;;;6.80;99.90;;;;;;5026694;28;20437;-58
2023/03/25 01:46:13;;;;;;;6.53;1.87;;;6.80;99.90;;;;;;5024469;28;20434;-59
2023/03/25 01:48:42;;;;;;;5.93;1.50;;;6.80;99.90;;;;;;5024673;28;20330;-57
2023/03/25 01:51:16;;;;;;;2.63;1.77;;;6.80;99.90;;;;;;5018825;28;20923;-57
2023/03/25 01:53:42;;;;;;;2.73;1.40;;;6.70;99.90;;;;;;5026702;28;20453;-56
2023/03/25 01:56:12;;;;;;;2.97;1.40;;;6.70;99.90;;;;;;5028873;28;21095;-59
2023/03/25 01:58:38;;;;;;;2.80;1.63;;;6.70;99.90;;;;;;5024178;28;20564;-58
2023/03/25 02:01:05;;;;;;;3.93;1.47;;;6.70;99.90;;;;;;5014358;28;20454;-59
2023/03/25 02:03:36;;;;;;;3.83;1.67;;;6.70;99.90;;;;;;5016878;28;20919;-58
2023/03/25 02:06:08;;;;;;;8.20;2.27;;;6.70;99.90;;;;;;5026917;28;20442;-56
2023/03/25 02:08:38;;;;;;;5.87;2.10;;;6.70;99.90;;;;;;5017357;28;20426;-58
2023/03/25 02:11:08;;;;;;;2.97;1.80;;;6.70;99.90;;;;;;5025191;28;20512;-57
2023/03/25 02:13:37;;;;;;;2.67;1.70;;;6.70;99.90;;;;;;5024376;28;20939;-58
2023/03/25 02:16:16;;;;;;;5.03;1.73;;;6.70;99.90;;;;;;5018345;28;20525;-58
2023/03/25 02:19:00;;;;;;;5.50;2.10;;;6.70;99.90;;;;;;5016911;28;20921;-59
2023/03/25 02:21:45;;;;;;;8.23;1.77;;;6.70;99.90;;;;;;5012621;28;20902;-58
2023/03/25 02:24:42;;;;;;;9.87;2.07;;;6.80;99.90;;;;;;5024705;28;20533;-57
2023/03/25 02:27:40;;;;;;;7.03;1.60;;;6.80;99.90;;;;;;5020008;28;20514;-58
2023/03/25 02:30:43;;;;;;;7.20;1.40;;;6.80;99.90;;;;;;5016806;28;20528;-58
2023/03/25 02:33:30;;;;;;;1.80;1.60;;;6.80;99.90;;;;;;5022121;28;20978;-58
2023/03/25 02:35:58;;;;;;;5.17;1.90;;;6.90;99.90;;;;;;5026690;28;20453;-57
2023/03/25 02:38:39;;;;;;;3.83;1.50;;;6.90;99.90;;;;;;5023857;28;20853;-58
2023/03/25 02:41:10;;;;;;;3.37;1.83;;;6.90;99.90;;;;;;5014244;28;20799;-58
2023/03/25 02:43:51;;;;;;;6.87;1.60;;;6.90;99.20;;;;;;5027385;28;20521;-56
2023/03/25 02:46:18;;;;;;;6.93;1.90;;;7.00;97.00;;;;;;5027068;28;20437;-56
2023/03/25 02:48:46;;;;;;;3.67;1.50;;;7.00;95.70;;;;;;5025235;28;20481;-58
2023/03/25 02:51:19;;;;;;;6.93;1.67;;;7.00;94.40;;;;;;5022920;28;20496;-56
2023/03/25 02:53:47;;;;;;;6.80;2.03;;;7.00;93.80;;;;;;5025373;28;20507;-57
2023/03/25 02:56:16;;;;;;;9.27;1.83;;;7.10;93.80;;;;;;5014833;28;20426;-58
2023/03/25 02:58:44;;;;;;;4.63;1.67;;;7.10;95.60;;;;;;5029774;28;20441;-58
2023/03/25 03:01:13;;;;;;;1.50;1.27;;;7.10;97.70;;;;;;5028178;28;20426;-53
2023/03/25 03:03:40;;;;;;;4.77;1.70;;;7.00;97.80;;;;;;5028660;28;20937;-56
2023/03/25 03:06:06;;;;;;;6.30;1.60;;;7.00;99.90;;;;;;5023458;28;20442;-57
2023/03/25 03:08:41;;;;;;;4.70;1.70;;;6.90;99.90;;;;;;5023868;28;20431;-58
2023/03/25 03:11:30;;;;;;;5.80;1.37;;;6.80;99.90;;;;;;5022148;28;20814;-56
2023/03/25 03:14:32;;;;;;;3.93;1.43;;;6.70;99.90;;;;;;5029789;28;20488;-55
2023/03/25 03:17:02;;;;;;;1.43;1.10;;;6.70;99.90;;;;;;5021029;28;20438;-58
2023/03/25 03:19:36;;;;;;;3.00;1.13;;;6.60;99.90;;;;;;5028317;28;21000;-56
2023/03/25 03:22:33;;;;;;;1.20;1.10;;;6.60;99.90;;;;;;5026616;28;20564;-58
2023/03/25 03:25:05;;;;;;;2.53;1.10;;;6.50;99.90;;;;;;5024669;28;20842;-58
2023/03/25 03:27:46;;;;;;;3.17;1.50;;;6.40;95.70;;;;;;5025692;28;20445;-58
2023/03/25 03:30:21;;;;;;;4.27;1.20;;;6.30;98.90;;;;;;5019449;28;20454;-57
2023/03/25 03:32:54;;;;;;;0.87;0.87;;;6.30;99.70;;;;;;5023978;28;20521;-58
2023/03/25 03:35:51;;;;;;;1.40;0.90;;;6.30;99.90;;;;;;5026968;28;20465;-58
2023/03/25 03:38:21;;;;;;;2.20;1.20;;;6.30;99.70;;;;;;5037681;28;20429;-59
2023/03/25 03:40:55;;;;;;;2.87;1.30;;;6.20;99.50;;;;;;5027477;28;20481;-57
2023/03/25 03:43:51;;;;;;;1.10;1.00;;;6.20;99.90;;;;;;5022480;28;20431;-58
2023/03/25 03:46:57;;;;;;;1.57;0.90;;;6.20;99.90;;;;;;5026786;28;20426;-56
2023/03/25 03:49:29;;;;;;;1.20;1.10;;;6.20;99.80;;;;;;5021684;28;20521;-59
2023/03/25 03:52:07;;;;;;;1.10;1.00;;;6.20;98.30;;;;;;5028146;28;20430;-57
2023/03/25 03:54:44;;;;;;;1.00;1.00;;;6.20;99.10;;;;;;5021257;28;20516;-58
2023/03/25 03:57:20;;;;;;;1.13;1.00;;;6.20;99.60;;;;;;5018920;28;20554;-58
2023/03/25 03:59:56;;;;;;;1.90;0.90;;;6.20;99.90;;;;;;5022557;28;20426;-59
2023/03/25 04:02:39;;;;;;;2.30;1.07;;;6.20;99.90;;;;;;5020661;28;20430;-58
2023/03/25 04:05:10;;;;;;;0.80;0.80;;;6.10;99.90;;;;;;5021620;28;20446;-56
2023/03/25 04:07:53;;;;;;;1.93;1.10;;;6.20;99.90;;;;;;5025342;28;20457;-59
2023/03/25 04:10:28;;;;;;;1.37;1.10;;;6.10;99.90;;;;;;5027152;28;20473;-60
2023/03/25 04:12:56;;;;;;;1.20;0.90;;;6.20;99.90;;;;;;5021734;28;20429;-57
2023/03/25 04:15:21;;;;;;;2.43;0.87;;;6.20;99.10;;;;;;5022884;28;20459;-57
2023/03/25 04:17:47;;;;;;;1.80;0.93;;;6.10;99.10;;;;;;5021969;28;20422;-57
2023/03/25 04:20:16;;;;;;;1.10;0.97;;;6.10;97.90;;;;;;5020762;28;20290;-57
2023/03/25 04:22:44;;;;;;;2.60;1.27;;;6.00;97.30;;;;;;5019568;28;20201;-57
2023/03/25 04:25:12;;;;;;;2.17;1.00;;;6.00;97.40;;;;;;5023671;28;20459;-58
2023/03/25 04:27:38;;;;;;;1.30;1.10;;;6.00;96.60;;;;;;5023278;28;20943;-57
2023/03/25 04:30:06;;;;;;;1.00;0.90;;;6.00;97.30;;;;;;5021693;28;20465;-57
2023/03/25 04:32:31;;;;;;;1.23;0.90;;;6.00;97.20;;;;;;5023002;28;20188;-58
2023/03/25 04:34:57;;;;;;;1.20;1.10;;;5.90;96.30;;;;;;5025547;28;20966;-58
2023/03/25 04:37:26;;;;;;;5.23;1.03;;;5.90;96.50;;;;;;5026074;28;20180;-56
2023/03/25 04:39:58;;;;;;;3.33;1.70;;;5.90;95.80;;;;;;5025541;28;20889;-56
2023/03/25 04:42:31;;;;;;;1.07;0.97;;;5.90;96.10;;;;;;5015118;28;20442;-57
2023/03/25 04:44:58;;;;;;;3.03;1.30;;;5.80;96.00;;;;;;5019071;28;20964;-56
2023/03/25 04:47:26;;;;;;;1.07;1.00;;;5.80;95.70;;;;;;5028309;28;20434;-62
2023/03/25 04:49:51;;;;;;;2.20;1.00;;;5.80;95.10;;;;;;5022389;28;20478;-59
2023/03/25 04:52:17;;;;;;;3.47;1.30;;;5.80;95.50;;;;;;5022000;28;20433;-56
2023/03/25 04:54:45;;;;;;;1.13;1.00;;;5.80;95.10;;;;;;5024284;28;20213;-58
2023/03/25 04:57:11;;;;;;;3.20;1.00;;;5.80;95.30;;;;;;5024873;28;20206;-59
2023/03/25 04:59:37;;;;;;;3.50;1.10;;;5.80;94.80;;;;;;5023561;28;20446;-58
2023/03/25 05:02:11;;;;;;;2.70;2.13;;;5.80;94.70;;;;;;5019835;28;20233;-57
2023/03/25 05:04:40;;;;;;;2.07;1.10;;;5.80;95.20;;;;;;5026389;28;20450;-59
2023/03/25 05:07:07;;;;;;;1.17;0.90;;;5.80;95.50;;;;;;5026261;28;20436;-59
2023/03/25 05:09:32;;;;;;;1.10;1.10;;;5.80;95.50;;;;;;5024604;28;20462;-60
2023/03/25 05:11:58;;;;;;;1.10;1.00;;;5.80;95.70;;;;;;5023513;28;20969;-57
2023/03/25 05:14:23;;;;;;;6.60;1.43;;;5.70;96.90;;;;;;5023815;28;20204;-58
2023/03/25 05:16:49;;;;;;;5.30;1.00;;;5.70;96.80;;;;;;5020707;28;20279;-59
2023/03/25 05:19:17;;;;;;;1.30;1.20;;;5.70;97.10;;;;;;5021970;28;20266;-58
2023/03/25 05:21:43;;;;;;;2.53;1.30;;;5.60;97.30;;;;;;5020366;28;20553;-59
2023/03/25 05:24:12;;;;;;;1.80;0.97;;;5.60;97.80;;;;;;5024552;28;20461;-58
2023/03/25 05:26:39;;;;;;;1.93;1.23;;;5.60;98.10;;;;;;5023859;28;20473;-56
2023/03/25 05:29:09;;;;;;;3.03;1.03;;;5.60;98.90;;;;;;5025960;28;20839;-58
2023/03/25 05:31:35;;;;;;;5.00;1.30;;;5.50;99.90;;;;;;5021649;28;20466;-58
2023/03/25 05:34:05;;;;;;;2.20;1.20;;;5.50;99.90;;;;;;5028286;28;20536;-56
2023/03/25 05:36:31;;;;;;;3.27;1.00;;;5.50;99.90;;;;;;5025444;28;20446;-58
2023/03/25 05:38:58;;;;;;;1.07;1.00;;;5.50;99.90;;;;;;5025379;28;20450;-57
2023/03/25 05:41:31;;;;;;;2.00;1.23;;;5.50;99.90;;;;;;5014980;28;20179;-61
2023/03/25 05:43:59;;;;;;;6.13;1.60;;;5.40;99.90;;;;;;5020008;28;20469;-59
2023/03/25 05:46:27;;;;;;;1.20;1.10;;;5.40;99.90;;;;;;5022039;28;20437;-57
2023/03/25 05:48:52;;;;;;;3.03;1.30;;;5.40;99.90;;;;;;5021900;28;20999;-57
2023/03/25 05:51:20;;;;;;;3.23;1.30;;;5.30;99.90;;;;;;5021656;28;20441;-56
2023/03/25 05:53:50;;;;;;;1.40;1.30;;;5.30;99.90;;;;;;5024187;28;20184;-58
2023/03/25 05:56:18;;;;;;;2.07;1.30;;;5.30;99.90;;;;;;5021731;28;20434;-57
2023/03/25 05:58:44;;;;;;;1.33;1.10;;;5.30;99.90;;;;;;5026344;28;20514;-58
2023/03/25 06:01:13;;;;;;;1.23;1.13;;;5.30;99.90;;;;;;5021162;28;20438;-56
2023/03/25 06:03:39;;;;;;;2.53;1.00;;;5.30;99.90;;;;;;5024215;28;20438;-57
2023/03/25 06:06:12;;;;;;;1.90;1.40;;;5.20;99.90;;;;;;5024861;28;20469;-56
2023/03/25 06:08:46;;;;;;;1.70;1.13;;;5.20;99.90;;;;;;5020374;28;20807;-59
2023/03/25 06:11:12;;;;;;;1.77;1.23;;;5.30;99.90;;;;;;5024861;28;20429;-57
2023/03/25 06:13:39;;;;;;;3.90;1.50;;;5.30;99.90;;;;;;5028890;28;20437;-56
2023/03/25 06:16:08;;;;;;;1.60;1.13;;;5.30;99.90;;;;;;5025551;28;20798;-58
2023/03/25 06:18:36;;;;;;;2.60;1.30;;;5.40;99.90;;;;;;5020542;28;20507;-57
2023/03/25 06:21:03;;;;;;;1.33;1.00;;;5.40;99.90;;;;;;5026493;28;20792;-57
2023/03/25 06:23:28;;;;;;;4.23;1.30;;;5.50;99.90;;;;;;5024260;28;20446;-58
2023/03/25 06:25:54;;;;;;;1.47;1.07;;;5.50;99.90;;;;;;5029500;28;20448;-58
2023/03/25 06:28:22;;;;;;;1.20;1.10;;;5.50;99.90;;;;;;5026569;28;20184;-58
2023/03/25 06:30:48;;;;;;;3.43;1.00;;;5.50;99.90;;;;;;5026907;28;20623;-59
2023/03/25 06:33:15;;;;;;;0.90;0.90;;;5.40;99.90;;;;;;5026425;28;20438;-58
2023/03/25 06:35:42;;;;;;;2.67;1.00;;;5.40;99.90;;;;;;5028233;28;20466;-57
2023/03/25 06:38:09;;;;;;;1.30;1.03;;;5.40;99.90;;;;;;5028791;28;20480;-56
2023/03/25 06:40:37;;;;;;;5.43;1.00;;;5.50;99.90;;;;;;5024476;28;20931;-57
2023/03/25 06:43:04;;;;;;;1.10;1.00;;;5.50;99.90;;;;;;5028707;28;20438;-58
2023/03/25 06:45:30;;;;;;;1.37;1.27;;;5.50;99.90;;;;;;5024075;28;20489;-58
2023/03/25 06:47:56;;;;;;;2.47;1.20;;;5.50;99.90;;;;;;5020058;28;20430;-58
2023/03/25 06:50:21;;;;;;;1.20;0.90;;;5.50;99.90;;;;;;5024969;28;21123;-57
2023/03/25 06:52:47;;;;;;;2.03;1.00;;;5.50;99.90;;;;;;5026925;28;20183;-57
2023/03/25 06:55:13;;;;;;;1.30;1.20;;;5.50;99.90;;;;;;5026393;28;20223;-59
2023/03/25 06:57:40;;;;;;;1.43;1.10;;;5.50;99.90;;;;;;5021461;28;20284;-57
2023/03/25 07:00:07;;;;;;;2.30;1.10;;;5.50;99.90;;;;;;5028445;28;20188;-57
2023/03/25 07:02:33;;;;;;;1.37;1.03;;;5.60;99.90;;;;;;5022010;28;20443;-56
2023/03/25 07:04:58;;;;;;;1.10;1.00;;;5.60;99.90;;;;;;5019205;28;20555;-60
2023/03/25 07:07:25;;;;;;;2.40;1.00;;;5.60;99.90;;;;;;5023600;28;20442;-57
2023/03/25 07:09:53;;;;;;;1.70;1.23;;;5.60;99.90;;;;;;5026413;28;20207;-57
2023/03/25 07:12:20;;;;;;;7.43;1.20;;;5.60;99.90;;;;;;5028350;28;20506;-58
2023/03/25 07:14:53;;;;;;;1.10;1.00;;;5.70;99.90;;;;;;5025462;28;20454;-60
2023/03/25 07:17:20;;;;;;;4.00;1.10;;;5.70;99.90;;;;;;5025584;28;20488;-57
2023/03/25 07:19:46;;;;;;;1.53;1.10;;;5.70;99.90;;;;;;5029547;28;20525;-56
2023/03/25 07:22:11;;;;;;;2.13;1.20;;;5.70;99.90;;;;;;5028922;28;20562;-58
2023/03/25 07:24:37;;;;;;;2.20;1.30;;;5.70;99.90;;;;;;5025083;28;21042;-57
2023/03/25 07:27:03;;;;;;;1.40;1.20;;;5.70;99.90;;;;;;5025034;28;20176;-57
2023/03/25 07:29:28;;;;;;;1.70;1.37;;;5.70;99.90;;;;;;5022772;28;20213;-58
2023/03/25 07:31:54;;;;;;;1.77;1.20;;;5.80;99.90;;;;;;5021902;28;20253;-58
2023/03/25 07:34:20;;;;;;;2.37;1.23;;;5.80;99.90;;;;;;5028662;28;20196;-58
2023/03/25 07:36:45;;;;;;;1.30;1.20;;;5.90;99.90;;;;;;5022819;28;20187;-56
2023/03/25 07:39:11;;;;;;;1.87;1.67;;;5.90;99.90;;;;;;5029330;28;20192;-57
2023/03/25 07:41:36;;;;;;;2.30;1.30;;;5.90;99.90;;;;;;5025754;28;21776;-59
2023/03/25 07:44:02;;;;;;;7.63;2.40;;;6.00;99.90;;;;;;5025615;28;20278;-58
2023/03/25 07:46:28;;;;;;;2.50;1.40;;;6.00;99.90;;;;;;5018782;28;20234;-55
2023/03/25 07:48:53;;;;;;;3.23;1.63;;;6.10;99.90;;;;;;5027226;28;20208;-57
2023/03/25 07:51:19;;;;;;;1.97;1.40;;;6.10;99.90;;;;;;5010358;28;20548;-57
2023/03/25 07:53:45;;;;;;;3.30;1.60;;;6.20;99.90;;;;;;5019730;28;20543;-58
2023/03/25 07:56:12;;;;;;;3.20;1.73;;;6.30;99.90;;;;;;5017385;28;20172;-58
2023/03/25 07:58:38;;;;;;;4.47;1.93;;;6.30;99.90;;;;;;5022586;28;20521;-58
2023/03/25 08:01:04;;;;;;;5.57;1.73;;;6.40;99.90;;;;;;5018200;28;20522;-57
2023/03/25 08:03:30;;;;;;;1.93;1.67;;;6.40;99.90;;;;;;5022838;28;20188;-57
2023/03/25 08:06:02;;;;;;;2.00;1.40;;;6.40;99.90;;;;;;5021593;28;20887;-59
2023/03/25 08:08:31;;;;;;;6.63;2.03;;;6.50;99.90;;;;;;5025524;28;20864;-58
2023/03/25 08:10:57;;;;;;;3.90;1.67;;;6.40;99.90;;;;;;5021088;28;20509;-56
2023/03/25 08:13:23;;;;;;;5.30;1.80;;;6.40;99.90;;;;;;5022384;28;20462;-58
2023/03/25 08:15:48;;;;;;;4.43;1.40;;;6.50;99.90;;;;;;5026517;28;20219;-57
2023/03/25 08:18:14;;;;;;;3.50;1.40;;;6.50;99.90;;;;;;5023812;28;20433;-58
2023/03/25 08:20:40;;;;;;;3.93;1.40;;;6.60;99.90;;;;;;5018392;28;20172;-57
2023/03/25 08:23:09;;;;;;;3.47;1.40;;;6.70;99.90;;;;;;5025790;28;20520;-57
2023/03/25 08:25:36;;;;;;;2.00;1.67;;;6.70;99.90;;;;;;5023647;28;20550;-55
2023/03/25 08:28:02;;;;;;;2.60;1.80;;;6.80;99.90;;;;;;5023374;28;20810;-59
2023/03/25 08:30:28;;;;;;;4.67;2.13;;;6.90;99.90;;;;;;5025511;28;20462;-56
2023/03/25 08:32:54;;;;;;;3.10;1.40;;;6.90;99.90;;;;;;5012826;28;20450;-57
2023/03/25 08:35:22;;;;;;;2.83;1.23;;;6.90;99.90;;;;;;5017206;28;20199;-58
2023/03/25 08:37:49;;;;;;;3.63;1.43;;;6.90;99.90;;;;;;5017476;28;20286;-55
2023/03/25 08:40:18;;;;;;;3.20;1.50;;;6.90;99.90;;;;;;5019878;28;20514;-57
2023/03/25 08:42:45;;;;;;;4.43;1.30;;;6.90;99.90;;;;;;5013926;28;20462;-57
2023/03/25 08:45:11;;;;;;;1.67;1.30;;;6.90;99.90;;;;;;5023978;28;20541;-58
2023/03/25 08:47:37;;;;;;;3.20;1.57;;;6.90;99.90;;;;;;5021105;28;20973;-56
2023/03/25 08:50:03;;;;;;;5.43;1.50;;;6.90;99.90;;;;;;5021209;28;21042;-57
2023/03/25 08:52:29;;;;;;;5.10;1.50;;;6.90;99.90;;;;;;5018291;28;20517;-58
2023/03/25 08:54:55;;;;;;;3.23;1.53;;;6.90;99.90;;;;;;5025470;28;20445;-56
2023/03/25 08:57:20;;;;;;;2.10;1.20;;;7.00;99.90;;;;;;5010001;28;20192;-61
2023/03/25 08:59:46;;;;;;;2.03;1.50;;;7.00;99.90;;;;;;5017028;28;20212;-61
2023/03/25 09:02:12;;;;;;;3.63;1.70;;;7.10;99.90;;;;;;5014606;28;20195;-57
2023/03/25 09:04:38;;;;;;;1.73;1.13;;;7.20;99.90;;;;;;5023096;28;20204;-58
2023/03/25 09:07:06;;;;;;;2.27;1.30;;;7.20;99.90;;;;;;5024349;28;20184;-58
2023/03/25 09:09:32;;;;;;;2.60;1.47;;;7.20;99.90;;;;;;5022882;28;20517;-58
2023/03/25 09:11:57;;;;;;;3.20;1.20;;;7.10;99.90;;;;;;5016439;28;21092;-56
2023/03/25 09:14:23;;;;;;;3.77;1.50;;;7.10;99.90;;;;;;5018601;28;20670;-60
2023/03/25 09:16:48;;;;;;;5.67;2.53;;;7.00;99.90;;;;;;5025701;28;20215;-57
2023/03/25 09:19:14;;;;;;;3.03;1.43;;;7.00;99.90;;;;;;5028510;28;20222;-57
2023/03/25 09:21:40;;;;;;;2.37;1.60;;;7.10;99.90;;;;;;5018332;28;20203;-58
2023/03/25 09:24:07;;;;;;;1.10;1.00;;;7.20;99.90;;;;;;5013427;28;20234;-58
2023/03/25 09:26:33;;;;;;;1.13;0.90;;;7.30;99.90;;;;;;5011018;28;20410;-58
2023/03/25 09:28:59;;;;;;;2.10;1.10;;;7.40;99.90;;;;;;5013756;28;21009;-58
2023/03/25 09:31:25;;;;;;;0.90;0.90;;;7.40;99.90;;;;;;5017133;28;20529;-58
2023/03/25 09:33:51;;;;;;;1.17;1.07;;;7.40;99.90;;;;;;5021414;28;20546;-58
2023/03/25 09:36:16;;;;;;;1.37;1.00;;;7.40;99.90;;;;;;5025738;28;20439;-59
2023/03/25 09:38:42;;;;;;;1.00;0.90;;;7.40;99.90;;;;;;5021119;28;20203;-58
2023/03/25 09:41:45;;;;;;;0.87;0.70;;;7.30;99.90;;;;;;5020748;28;20164;-57
2023/03/25 09:44:29;;;;;;;1.93;1.20;;;7.30;99.90;;;;;;5025226;28;20866;-57
2023/03/25 09:46:58;;;;;;;1.30;1.20;;;7.30;99.90;;;;;;5006814;28;20431;-58
2023/03/25 09:49:31;;;;;;;1.67;1.20;;;7.40;99.90;;;;;;5017992;28;20495;-58
2023/03/25 09:51:57;;;;;;;4.50;1.20;;;7.50;99.90;;;;;;5025811;28;20438;-58
2023/03/25 09:54:32;;;;;;;1.13;1.03;;;7.50;99.90;;;;;;5026022;28;20465;-57
2023/03/25 09:57:07;;;;;;;2.80;1.40;;;7.50;99.90;;;;;;5015851;28;20518;-59
2023/03/25 09:59:47;;;;;;;1.60;1.30;;;7.40;99.90;;;;;;5018962;28;20473;-55
2023/03/25 10:02:55;;;;;;;1.10;1.10;;;7.50;99.90;;;;;;5016864;28;20442;-58
2023/03/25 10:05:47;;;;;;;1.07;1.07;;;7.70;99.90;;;;;;5019738;28;20572;-57
2023/03/25 10:08:22;;;;;;;1.47;1.10;;;8.10;99.90;;;;;;5018774;28;20898;-57
2023/03/25 10:11:08;;;;;;;1.00;0.90;;;8.40;93.10;;;;;;5024597;28;21002;-56
2023/03/25 10:13:42;;;;;;;1.23;1.17;;;8.60;92.20;;;;;;5012831;28;20985;-58
2023/03/25 10:16:27;;;;;;;0.70;0.70;;;8.70;92.60;;;;;;5016740;28;21003;-60
2023/03/25 10:18:53;;;;;;;0.70;0.70;;;8.80;88.20;;;;;;5015005;28;20434;-58
2023/03/25 10:21:21;;;;;;;1.00;0.90;;;8.80;80.60;;;;;;5014248;28;20507;-55
2023/03/25 10:24:14;;;;;;;0.93;0.93;;;8.60;79.00;;;;;;5010296;28;20672;-57
2023/03/25 10:27:01;;;;;;;0.80;0.80;;;8.50;83.80;;;;;;5016375;28;20446;-57
2023/03/25 10:29:42;;;;;;;1.33;0.93;;;8.40;84.40;;;;;;5011444;28;20977;-59
2023/03/25 10:32:16;;;;;;;0.97;0.97;;;8.40;85.50;;;;;;5015459;28;20423;-58
2023/03/25 10:34:49;;;;;;;1.00;0.90;;;8.30;83.00;;;;;;5012736;28;20556;-60
2023/03/25 10:37:29;;;;;;;1.67;0.80;;;8.30;86.20;;;;;;5013715;28;20435;-61
2023/03/25 10:40:05;;;;;;;1.00;1.00;;;8.20;81.90;;;;;;5015204;28;20985;-61
2023/03/25 10:42:38;;;;;;;1.80;1.47;;;8.20;86.00;;;;;;5018375;28;20455;-57
2023/03/25 10:45:12;;;;;;;1.50;1.40;;;8.30;87.30;;;;;;5019035;28;20544;-59
2023/03/25 10:47:41;;;;;;;1.73;1.63;;;8.40;85.80;;;;;;5013389;28;20430;-59
2023/03/25 10:50:16;;;;;;;1.63;1.40;;;8.50;85.70;;;;;;5013227;28;20473;-63
2023/03/25 10:52:42;;;;;;;2.40;1.20;;;8.50;84.10;;;;;;5014005;28;21162;-60
2023/03/25 10:55:27;;;;;;;0.90;0.90;;;8.70;79.60;;;;;;5022702;28;20454;-61
2023/03/25 10:57:54;;;;;;;1.20;1.10;;;8.80;80.80;;;;;;5023614;28;20580;-60
2023/03/25 11:00:23;;;;;;;0.90;0.90;;;9.00;78.30;;;;;;5012555;28;20441;-61
2023/03/25 11:02:49;;;;;;;2.90;1.20;;;9.10;71.70;;;;;;5024594;28;20443;-59
2023/03/25 11:05:20;;;;;;;1.20;1.10;;;9.00;72.50;;;;;;5013186;28;20870;-57
2023/03/25 11:08:00;;;;;;;1.10;1.10;;;8.90;73.10;;;;;;5013224;28;20442;-55
2023/03/25 11:10:33;;;;;;;1.00;0.90;;;8.80;73.90;;;;;;5008337;28;20466;-56
2023/03/25 11:13:06;;;;;;;0.90;0.90;;;8.70;76.00;;;;;;5002774;28;20880;-61
2023/03/25 11:15:40;;;;;;;1.20;1.10;;;8.80;76.60;;;;;;5001364;28;20446;-57
2023/03/25 11:18:32;;;;;;;1.23;1.10;;;8.80;78.10;;;;;;5009405;28;20431;-52
2023/03/25 11:21:17;;;;;;;1.10;1.00;;;8.90;77.10;;;;;;5012686;28;20524;-56
2023/03/25 11:23:45;;;;;;;1.10;1.10;;;8.90;75.80;;;;;;5020176;28;20451;-57
2023/03/25 11:26:12;;;;;;;0.80;0.80;;;8.80;76.20;;;;;;5026379;28;21019;-57
2023/03/25 11:28:44;;;;;;;2.83;0.90;;;8.70;75.60;;;;;;5027080;28;20448;-56
2023/03/25 11:31:17;;;;;;;0.80;0.80;;;8.70;75.90;;;;;;5024151;28;20507;-57
2023/03/25 11:33:45;;;;;;;0.90;0.90;;;8.70;76.60;;;;;;5025587;28;20437;-56
2023/03/25 11:36:11;;;;;;;2.00;1.37;;;8.90;74.00;;;;;;5022084;28;20505;-59
2023/03/25 11:38:38;;;;;;;1.73;1.10;;;9.10;70.40;;;;;;5026644;28;20521;-55
2023/03/25 11:41:05;;;;;;;1.47;1.20;;;9.20;70.30;;;;;;5023255;28;20184;-58
2023/03/25 11:43:39;;;;;;;1.10;1.00;;;9.40;73.00;;;;;;5026834;28;20446;-57
2023/03/25 11:46:14;;;;;;;1.00;0.90;;;9.70;73.50;;;;;;5027716;28;20585;-56
2023/03/25 11:48:41;;;;;;;1.37;1.27;;;10.10;70.00;;;;;;5028156;28;20943;-61
2023/03/25 11:51:22;;;;;;;5.97;1.13;;;10.30;64.20;;;;;;5027598;28;20434;-57
2023/03/25 11:53:57;;;;;;;2.40;1.00;;;10.30;63.40;;;;;;5027856;28;20434;-59
2023/03/25 11:56:31;;;;;;;2.07;1.10;;;10.30;61.60;;;;;;5023446;28;20450;-58
2023/03/25 11:59:00;;;;;;;2.30;1.00;;;10.30;60.00;;;;;;5027623;28;20501;-58
2023/03/25 12:01:35;;;;;;;2.63;1.20;;;10.50;59.30;;;;;;5023715;28;22221;-57
2023/03/25 12:04:16;;;;;;;1.43;1.10;;;10.70;58.40;;;;;;5029204;28;20528;-58
2023/03/25 12:07:06;;;;;;;1.20;1.00;;;10.90;58.20;;;;;;5023674;28;20415;-59
2023/03/25 12:09:31;;;;;;;1.90;1.30;;;11.00;58.20;;;;;;5027195;28;20838;-57
2023/03/25 12:12:22;;;;;;;1.90;1.10;;;11.10;58.80;;;;;;5021566;28;20441;-60
2023/03/25 12:15:05;;;;;;;2.40;1.40;;;11.10;56.00;;;;;;5023419;28;20214;-58
2023/03/25 12:17:47;;;;;;;1.30;1.10;;;11.00;56.10;;;;;;5023827;28;21103;-60
2023/03/25 12:20:31;;;;;;;2.30;1.10;;;11.10;54.30;;;;;;5018471;28;20443;-56
2023/03/25 12:23:37;;;;;;;1.67;0.97;;;11.30;55.10;;;;;;5028137;28;20446;-56
2023/03/25 12:26:30;;;;;;;1.47;1.17;;;11.70;55.60;;;;;;5024689;28;20490;-61
2023/03/25 12:29:08;;;;;;;1.57;1.20;;;11.60;54.50;;;;;;5028290;28;20501;-58
2023/03/25 12:31:57;;;;;;;3.60;2.00;;;11.50;52.80;;;;;;5024682;28;20777;-58
2023/03/25 12:34:31;;;;;;;5.97;2.57;;;11.40;53.80;;;;;;5021999;28;21125;-57
2023/03/25 12:37:05;;;;;;;1.17;1.07;;;11.50;54.90;;;;;;5022170;28;20418;-59
2023/03/25 12:39:45;;;;;;;1.80;1.10;;;11.40;54.10;;;;;;5025489;28;20435;-59
2023/03/25 12:42:56;;;;;;;1.20;1.10;;;11.30;54.40;;;;;;5022423;28;20445;-58
2023/03/25 12:45:31;;;;;;;1.27;0.93;;;11.30;55.00;;;;;;5021071;28;20477;-58
2023/03/25 12:48:18;;;;;;;2.03;1.10;;;11.60;55.40;;;;;;5021689;28;20438;-58
2023/03/25 12:51:16;;;;;;;2.43;1.20;;;12.00;54.60;;;;;;5026367;28;21108;-58
2023/03/25 12:53:53;;;;;;;4.33;1.20;;;12.20;54.30;;;;;;5026205;28;20433;-59
2023/03/25 12:56:28;;;;;;;1.53;1.00;;;12.10;54.30;;;;;;5027183;28;20426;-57
2023/03/25 12:59:46;;;;;;;0.80;0.80;;;11.90;54.30;;;;;;5025423;28;20464;-58
2023/03/25 13:02:35;;;;;;;1.93;0.93;;;11.80;54.00;;;;;;5011992;28;20853;-58
2023/03/25 13:05:36;;;;;;;1.40;1.23;;;11.90;55.60;;;;;;5019635;28;20446;-60
2023/03/25 13:08:26;;;;;;;2.30;1.20;;;12.20;55.90;;;;;;5025079;28;20837;-55
2023/03/25 13:11:06;;;;;;;2.40;1.23;;;12.50;54.50;;;;;;5027018;28;20549;-58
2023/03/25 13:13:33;;;;;;;1.30;1.20;;;12.60;54.10;;;;;;5016436;28;20810;-61
2023/03/25 13:16:08;;;;;;;1.73;1.40;;;12.80;53.30;;;;;;5018360;28;20468;-57
2023/03/25 13:18:48;;;;;;;4.23;1.30;;;13.10;54.00;;;;;;5015835;28;20457;-58